sensor_id;sensor_type;location;lat;lon;timestamp;temperature;humidity
30300;DHT22;17110;52.602;12.998;2023-12-04T00:00:29;-5.30;99.90
30300;DHT22;17110;52.602;12.998;2023-12-04T00:05:30;-5.40;99.90
30300;DHT22;17110;52.602;12.998;2023-12-04T00:10:31;-5.40;99.90
30300;DHT22;17110;52.602;12.998;2023-12-04T00:15:33;-5.50;99.90
30300;DHT22;17110;52.602;12.998;2023-12-04T00:20:34;-5.50;99.90
30300;DHT22;17110;52.602;12.998;2023-12-04T00:25:34;-5.50;99.90
30300;DHT22;17110;52.602;12.998;2023-12-04T00:30:36;-5.70;99.90
30300;DHT22;17110;52.602;12.998;2023-12-04T00:35:37;-5.70;99.90
30300;DHT22;17110;52.602;12.998;2023-12-04T00:40:38;-5.80;99.90
30300;DHT22;17110;52.602;12.998;2023-12-04T00:45:40;-5.80;99.90
30300;DHT22;17110;52.602;12.998;2023-12-04T00:50:41;-5.80;99.90
30300;DHT22;17110;52.602;12.998;2023-12-04T00:55:41;-5.80;99.90
30300;DHT22;17110;52.602;12.998;2023-12-04T01:00:44;-5.90;99.90
30300;DHT22;17110;52.602;12.998;2023-12-04T01:05:44;-5.90;99.90
30300;DHT22;17110;52.602;12.998;2023-12-04T01:10:45;-5.90;99.90
30300;DHT22;17110;52.602;12.998;2023-12-04T01:15:47;-6.00;99.90
30300;DHT22;17110;52.602;12.998;2023-12-04T01:20:48;-6.00;99.90
30300;DHT22;17110;52.602;12.998;2023-12-04T01:25:49;-6.10;99.90
30300;DHT22;17110;52.602;12.998;2023-12-04T01:30:51;-6.10;99.90
30300;DHT22;17110;52.602;12.998;2023-12-04T01:35:52;-6.00;99.90
30300;DHT22;17110;52.602;12.998;2023-12-04T01:40:52;-6.00;99.90
30300;DHT22;17110;52.602;12.998;2023-12-04T01:45:55;-5.90;99.90
30300;DHT22;17110;52.602;12.998;2023-12-04T01:50:56;-5.90;99.90
30300;DHT22;17110;52.602;12.998;2023-12-04T01:55:58;-5.80;99.90
30300;DHT22;17110;52.602;12.998;2023-12-04T02:01:00;-5.60;99.90
30300;DHT22;17110;52.602;12.998;2023-12-04T02:06:02;-5.50;99.90
30300;DHT22;17110;52.602;12.998;2023-12-04T02:11:03;-5.50;99.90
30300;DHT22;17110;52.602;12.998;2023-12-04T02:16:09;-5.50;99.90
30300;DHT22;17110;52.602;12.998;2023-12-04T02:21:11;-5.40;99.90
30300;DHT22;17110;52.602;12.998;2023-12-04T02:26:16;-5.40;99.90
30300;DHT22;17110;52.602;12.998;2023-12-04T02:31:19;-5.30;99.90
30300;DHT22;17110;52.602;12.998;2023-12-04T02:36:23;-5.30;99.90
30300;DHT22;17110;52.602;12.998;2023-12-04T02:41:26;-5.40;99.90
30300;DHT22;17110;52.602;12.998;2023-12-04T02:46:27;-5.40;99.90
30300;DHT22;17110;52.602;12.998;2023-12-04T02:51:27;-5.40;99.90
30300;DHT22;17110;52.602;12.998;2023-12-04T02:56:29;-5.40;99.90
30300;DHT22;17110;52.602;12.998;2023-12-04T03:01:30;-5.40;99.90
30300;DHT22;17110;52.602;12.998;2023-12-04T03:06:31;-5.30;99.90
30300;DHT22;17110;52.602;12.998;2023-12-04T03:11:33;-5.30;99.90
30300;DHT22;17110;52.602;12.998;2023-12-04T03:16:34;-5.00;99.90
30300;DHT22;17110;52.602;12.998;2023-12-04T03:21:35;-4.90;99.90
30300;DHT22;17110;52.602;12.998;2023-12-04T03:26:37;-4.80;99.90
30300;DHT22;17110;52.602;12.998;2023-12-04T03:31:38;-4.80;99.90
30300;DHT22;17110;52.602;12.998;2023-12-04T03:36:39;-4.80;99.90
30300;DHT22;17110;52.602;12.998;2023-12-04T03:41:41;-4.80;99.90
30300;DHT22;17110;52.602;12.998;2023-12-04T03:46:42;-4.80;99.90
30300;DHT22;17110;52.602;12.998;2023-12-04T03:51:43;-4.90;99.90
30300;DHT22;17110;52.602;12.998;2023-12-04T03:56:47;-4.80;99.90
30300;DHT22;17110;52.602;12.998;2023-12-04T04:01:48;-4.90;99.90
30300;DHT22;17110;52.602;12.998;2023-12-04T04:06:49;-5.00;99.90
30300;DHT22;17110;52.602;12.998;2023-12-04T04:11:51;-5.10;99.90
30300;DHT22;17110;52.602;12.998;2023-12-04T04:16:52;-5.00;99.90
30300;DHT22;17110;52.602;12.998;2023-12-04T04:21:52;-5.00;99.90
30300;DHT22;17110;52.602;12.998;2023-12-04T04:26:54;-4.90;99.90
30300;DHT22;17110;52.602;12.998;2023-12-04T04:31:55;-4.90;99.90
30300;DHT22;17110;52.602;12.998;2023-12-04T04:36:56;-4.80;99.90
30300;DHT22;17110;52.602;12.998;2023-12-04T04:41:58;-4.80;99.90
30300;DHT22;17110;52.602;12.998;2023-12-04T04:46:59;-4.70;99.90
30300;DHT22;17110;52.602;12.998;2023-12-04T04:52:00;-4.60;99.90
30300;DHT22;17110;52.602;12.998;2023-12-04T04:57:02;-4.60;99.90
30300;DHT22;17110;52.602;12.998;2023-12-04T05:02:03;-4.50;99.90
30300;DHT22;17110;52.602;12.998;2023-12-04T05:07:04;-4.50;99.90
30300;DHT22;17110;52.602;12.998;2023-12-04T05:12:07;-4.50;99.90
30300;DHT22;17110;52.602;12.998;2023-12-04T05:17:07;-4.40;99.90
30300;DHT22;17110;52.602;12.998;2023-12-04T05:22:08;-4.40;99.90
30300;DHT22;17110;52.602;12.998;2023-12-04T05:27:10;-4.40;99.90
30300;DHT22;17110;52.602;12.998;2023-12-04T05:32:11;-4.40;99.90
30300;DHT22;17110;52.602;12.998;2023-12-04T05:37:12;-4.40;99.90
30300;DHT22;17110;52.602;12.998;2023-12-04T05:42:14;-4.40;99.90
30300;DHT22;17110;52.602;12.998;2023-12-04T05:47:14;-4.40;99.90
30300;DHT22;17110;52.602;12.998;2023-12-04T05:52:15;-4.30;99.90
30300;DHT22;17110;52.602;12.998;2023-12-04T05:57:17;-4.30;99.90
30300;DHT22;17110;52.602;12.998;2023-12-04T06:02:18;-4.20;99.90
30300;DHT22;17110;52.602;12.998;2023-12-04T06:07:19;-4.10;99.90
30300;DHT22;17110;52.602;12.998;2023-12-04T06:12:21;-4.10;99.90
30300;DHT22;17110;52.602;12.998;2023-12-04T06:17:21;-4.00;99.90
30300;DHT22;17110;52.602;12.998;2023-12-04T06:22:22;-3.90;99.90
30300;DHT22;17110;52.602;12.998;2023-12-04T06:27:25;-3.90;99.90
30300;DHT22;17110;52.602;12.998;2023-12-04T06:32:27;-3.90;99.90
30300;DHT22;17110;52.602;12.998;2023-12-04T06:37:28;-3.90;99.90
30300;DHT22;17110;52.602;12.998;2023-12-04T06:42:30;-3.90;99.90
30300;DHT22;17110;52.602;12.998;2023-12-04T06:47:32;-3.90;99.90
30300;DHT22;17110;52.602;12.998;2023-12-04T06:52:34;-3.80;99.90
30300;DHT22;17110;52.602;12.998;2023-12-04T06:57:36;-3.80;99.90
30300;DHT22;17110;52.602;12.998;2023-12-04T07:02:37;-3.70;99.90
30300;DHT22;17110;52.602;12.998;2023-12-04T07:07:38;-3.60;99.90
30300;DHT22;17110;52.602;12.998;2023-12-04T07:12:40;-3.60;99.90
30300;DHT22;17110;52.602;12.998;2023-12-04T07:17:41;-3.50;99.90
30300;DHT22;17110;52.602;12.998;2023-12-04T07:22:41;-3.50;99.90
30300;DHT22;17110;52.602;12.998;2023-12-04T07:27:43;-3.30;99.90
30300;DHT22;17110;52.602;12.998;2023-12-04T07:32:44;-3.20;99.90
30300;DHT22;17110;52.602;12.998;2023-12-04T07:37:45;-3.20;99.90
30300;DHT22;17110;52.602;12.998;2023-12-04T07:42:47;-3.10;99.90
30300;DHT22;17110;52.602;12.998;2023-12-04T07:47:48;-3.00;99.90
30300;DHT22;17110;52.602;12.998;2023-12-04T07:52:48;-2.80;99.90
30300;DHT22;17110;52.602;12.998;2023-12-04T07:57:50;-2.70;99.90
30300;DHT22;17110;52.602;12.998;2023-12-04T08:02:51;-2.60;99.90
30300;DHT22;17110;52.602;12.998;2023-12-04T08:07:52;-2.50;99.90
30300;DHT22;17110;52.602;12.998;2023-12-04T08:12:54;-2.50;99.90
30300;DHT22;17110;52.602;12.998;2023-12-04T08:17:55;-2.40;99.90
30300;DHT22;17110;52.602;12.998;2023-12-04T08:22:55;-2.30;99.90
30300;DHT22;17110;52.602;12.998;2023-12-04T08:27:58;-2.10;99.90
30300;DHT22;17110;52.602;12.998;2023-12-04T08:32:59;-2.00;99.90
30300;DHT22;17110;52.602;12.998;2023-12-04T08:38:00;-1.90;99.90
30300;DHT22;17110;52.602;12.998;2023-12-04T08:43:02;-1.70;99.90
30300;DHT22;17110;52.602;12.998;2023-12-04T08:48:03;-1.70;99.90
30300;DHT22;17110;52.602;12.998;2023-12-04T08:53:04;-1.60;99.90
30300;DHT22;17110;52.602;12.998;2023-12-04T08:58:06;-1.40;99.90
30300;DHT22;17110;52.602;12.998;2023-12-04T09:03:07;-1.30;99.90
30300;DHT22;17110;52.602;12.998;2023-12-04T09:08:08;-1.20;99.90
30300;DHT22;17110;52.602;12.998;2023-12-04T09:13:10;-1.20;99.90
30300;DHT22;17110;52.602;12.998;2023-12-04T09:18:11;-1.20;99.90
30300;DHT22;17110;52.602;12.998;2023-12-04T09:23:11;-1.20;99.90
30300;DHT22;17110;52.602;12.998;2023-12-04T09:28:13;-1.10;99.90
30300;DHT22;17110;52.602;12.998;2023-12-04T09:33:17;-0.80;99.90
30300;DHT22;17110;52.602;12.998;2023-12-04T09:38:18;-0.70;99.90
30300;DHT22;17110;52.602;12.998;2023-12-04T09:43:20;-0.50;99.90
30300;DHT22;17110;52.602;12.998;2023-12-04T09:48:20;-0.40;99.90
30300;DHT22;17110;52.602;12.998;2023-12-04T09:53:23;-0.20;99.90
30300;DHT22;17110;52.602;12.998;2023-12-04T09:58:27;0.00;99.90
30300;DHT22;17110;52.602;12.998;2023-12-04T10:03:28;0.20;99.90
30300;DHT22;17110;52.602;12.998;2023-12-04T10:08:29;0.30;99.90
30300;DHT22;17110;52.602;12.998;2023-12-04T10:13:31;0.20;99.90
30300;DHT22;17110;52.602;12.998;2023-12-04T10:18:32;0.40;99.90
30300;DHT22;17110;52.602;12.998;2023-12-04T10:23:37;0.30;99.90
30300;DHT22;17110;52.602;12.998;2023-12-04T10:28:39;0.30;99.90
30300;DHT22;17110;52.602;12.998;2023-12-04T10:33:41;0.40;99.90
30300;DHT22;17110;52.602;12.998;2023-12-04T10:38:41;0.60;99.90
30300;DHT22;17110;52.602;12.998;2023-12-04T10:43:48;0.60;99.90
30300;DHT22;17110;52.602;12.998;2023-12-04T10:48:49;0.70;99.90
30300;DHT22;17110;52.602;12.998;2023-12-04T10:53:50;0.60;99.90
30300;DHT22;17110;52.602;12.998;2023-12-04T10:58:53;0.70;99.90
30300;DHT22;17110;52.602;12.998;2023-12-04T11:03:56;0.60;99.90
30300;DHT22;17110;52.602;12.998;2023-12-04T11:08:59;0.70;99.90
30300;DHT22;17110;52.602;12.998;2023-12-04T11:14:05;0.60;99.90
30300;DHT22;17110;52.602;12.998;2023-12-04T11:19:14;0.70;99.90
30300;DHT22;17110;52.602;12.998;2023-12-04T11:24:18;0.70;99.90
30300;DHT22;17110;52.602;12.998;2023-12-04T11:29:21;0.70;99.90
30300;DHT22;17110;52.602;12.998;2023-12-04T11:34:24;0.80;99.90
30300;DHT22;17110;52.602;12.998;2023-12-04T11:39:27;0.70;99.90
30300;DHT22;17110;52.602;12.998;2023-12-04T11:44:32;1.00;99.90
30300;DHT22;17110;52.602;12.998;2023-12-04T11:49:33;1.00;99.90
30300;DHT22;17110;52.602;12.998;2023-12-04T11:54:56;1.00;99.90
30300;DHT22;17110;52.602;12.998;2023-12-04T12:00:19;0.90;99.90
30300;DHT22;17110;52.602;12.998;2023-12-04T12:05:21;0.90;99.90
30300;DHT22;17110;52.602;12.998;2023-12-04T12:10:22;0.80;99.90
30300;DHT22;17110;52.602;12.998;2023-12-04T12:15:25;0.60;99.90
30300;DHT22;17110;52.602;12.998;2023-12-04T12:20:26;0.60;99.90
30300;DHT22;17110;52.602;12.998;2023-12-04T12:25:27;0.60;99.90
30300;DHT22;17110;52.602;12.998;2023-12-04T12:30:29;0.80;99.90
30300;DHT22;17110;52.602;12.998;2023-12-04T12:35:30;0.70;99.90
30300;DHT22;17110;52.602;12.998;2023-12-04T12:40:32;0.70;99.90
30300;DHT22;17110;52.602;12.998;2023-12-04T12:45:40;0.70;99.90
30300;DHT22;17110;52.602;12.998;2023-12-04T12:50:41;0.80;99.90
30300;DHT22;17110;52.602;12.998;2023-12-04T12:55:43;0.80;99.90
30300;DHT22;17110;52.602;12.998;2023-12-04T13:00:45;0.70;99.90
30300;DHT22;17110;52.602;12.998;2023-12-04T13:05:46;0.70;99.90
30300;DHT22;17110;52.602;12.998;2023-12-04T13:10:47;0.60;99.90
30300;DHT22;17110;52.602;12.998;2023-12-04T13:15:49;0.60;99.90
30300;DHT22;17110;52.602;12.998;2023-12-04T13:20:50;0.70;99.90
30300;DHT22;17110;52.602;12.998;2023-12-04T13:25:50;0.70;99.90
30300;DHT22;17110;52.602;12.998;2023-12-04T13:30:52;0.60;99.90
30300;DHT22;17110;52.602;12.998;2023-12-04T13:35:53;0.50;99.90
30300;DHT22;17110;52.602;12.998;2023-12-04T13:40:54;0.40;99.90
30300;DHT22;17110;52.602;12.998;2023-12-04T13:45:56;0.40;99.90
30300;DHT22;17110;52.602;12.998;2023-12-04T13:50:57;0.40;99.90
30300;DHT22;17110;52.602;12.998;2023-12-04T13:55:57;0.30;99.90
30300;DHT22;17110;52.602;12.998;2023-12-04T14:00:59;0.30;99.90
30300;DHT22;17110;52.602;12.998;2023-12-04T14:06:00;0.30;99.90
30300;DHT22;17110;52.602;12.998;2023-12-04T14:11:01;0.20;99.90
30300;DHT22;17110;52.602;12.998;2023-12-04T14:16:04;0.20;99.90
30300;DHT22;17110;52.602;12.998;2023-12-04T14:21:05;0.20;99.90
30300;DHT22;17110;52.602;12.998;2023-12-04T14:26:06;0.20;99.90
30300;DHT22;17110;52.602;12.998;2023-12-04T14:31:09;0.10;99.90
30300;DHT22;17110;52.602;12.998;2023-12-04T14:36:10;0.10;99.90
30300;DHT22;17110;52.602;12.998;2023-12-04T14:41:11;0.00;99.90
30300;DHT22;17110;52.602;12.998;2023-12-04T14:46:13;0.00;99.90
30300;DHT22;17110;52.602;12.998;2023-12-04T14:51:14;-0.10;99.90
30300;DHT22;17110;52.602;12.998;2023-12-04T14:56:15;-0.10;99.90
30300;DHT22;17110;52.602;12.998;2023-12-04T15:01:17;-0.10;99.90
30300;DHT22;17110;52.602;12.998;2023-12-04T15:06:18;-0.10;99.90
30300;DHT22;17110;52.602;12.998;2023-12-04T15:11:18;-0.20;99.90
30300;DHT22;17110;52.602;12.998;2023-12-04T15:16:22;-0.20;99.90
30300;DHT22;17110;52.602;12.998;2023-12-04T15:21:23;-0.20;99.90
30300;DHT22;17110;52.602;12.998;2023-12-04T15:26:24;-0.20;99.90
30300;DHT22;17110;52.602;12.998;2023-12-04T15:31:26;-0.20;99.90
30300;DHT22;17110;52.602;12.998;2023-12-04T15:36:26;-0.20;99.90
30300;DHT22;17110;52.602;12.998;2023-12-04T15:41:27;-0.20;99.90
30300;DHT22;17110;52.602;12.998;2023-12-04T15:46:29;-0.20;99.90
30300;DHT22;17110;52.602;12.998;2023-12-04T15:51:30;-0.20;99.90
30300;DHT22;17110;52.602;12.998;2023-12-04T15:56:31;-0.30;99.90
30300;DHT22;17110;52.602;12.998;2023-12-04T16:01:33;-0.30;99.90
30300;DHT22;17110;52.602;12.998;2023-12-04T16:06:33;-0.20;99.90
30300;DHT22;17110;52.602;12.998;2023-12-04T16:11:34;-0.20;99.90
30300;DHT22;17110;52.602;12.998;2023-12-04T16:16:37;-0.20;99.90
30300;DHT22;17110;52.602;12.998;2023-12-04T16:21:37;-0.20;99.90
30300;DHT22;17110;52.602;12.998;2023-12-04T16:26:38;-0.20;99.90
30300;DHT22;17110;52.602;12.998;2023-12-04T16:31:40;-0.20;99.90
30300;DHT22;17110;52.602;12.998;2023-12-04T16:36:41;-0.20;99.90
30300;DHT22;17110;52.602;12.998;2023-12-04T16:41:42;-0.30;99.90
30300;DHT22;17110;52.602;12.998;2023-12-04T16:46:44;-0.20;99.90
30300;DHT22;17110;52.602;12.998;2023-12-04T16:51:45;-0.20;99.90
30300;DHT22;17110;52.602;12.998;2023-12-04T16:56:47;-0.30;99.90
30300;DHT22;17110;52.602;12.998;2023-12-04T17:01:49;-0.30;99.90
30300;DHT22;17110;52.602;12.998;2023-12-04T17:06:50;-0.20;99.90
30300;DHT22;17110;52.602;12.998;2023-12-04T17:11:51;-0.10;99.90
30300;DHT22;17110;52.602;12.998;2023-12-04T17:16:53;-0.20;99.90
30300;DHT22;17110;52.602;12.998;2023-12-04T17:21:54;-0.20;99.90
30300;DHT22;17110;52.602;12.998;2023-12-04T17:26:54;-0.20;99.90
30300;DHT22;17110;52.602;12.998;2023-12-04T17:31:56;-0.20;99.90
30300;DHT22;17110;52.602;12.998;2023-12-04T17:36:57;-0.10;99.90
30300;DHT22;17110;52.602;12.998;2023-12-04T17:41:58;-0.10;99.90
30300;DHT22;17110;52.602;12.998;2023-12-04T17:47:00;-0.10;99.90
30300;DHT22;17110;52.602;12.998;2023-12-04T17:52:01;-0.10;99.90
30300;DHT22;17110;52.602;12.998;2023-12-04T17:57:02;-0.10;99.90
30300;DHT22;17110;52.602;12.998;2023-12-04T18:02:06;0.00;99.90
30300;DHT22;17110;52.602;12.998;2023-12-04T18:07:07;0.00;99.90
30300;DHT22;17110;52.602;12.998;2023-12-04T18:12:08;0.00;99.90
30300;DHT22;17110;52.602;12.998;2023-12-04T18:17:10;0.00;99.90
30300;DHT22;17110;52.602;12.998;2023-12-04T18:22:11;0.00;99.90
30300;DHT22;17110;52.602;12.998;2023-12-04T18:27:13;0.00;99.90
30300;DHT22;17110;52.602;12.998;2023-12-04T18:32:16;0.00;99.90
30300;DHT22;17110;52.602;12.998;2023-12-04T18:37:20;0.00;99.90
30300;DHT22;17110;52.602;12.998;2023-12-04T18:42:23;0.10;99.90
30300;DHT22;17110;52.602;12.998;2023-12-04T18:47:26;0.20;99.90
30300;DHT22;17110;52.602;12.998;2023-12-04T18:52:28;0.10;99.90
30300;DHT22;17110;52.602;12.998;2023-12-04T18:57:29;0.10;99.90
30300;DHT22;17110;52.602;12.998;2023-12-04T19:02:31;0.10;99.90
30300;DHT22;17110;52.602;12.998;2023-12-04T19:07:32;0.10;99.90
30300;DHT22;17110;52.602;12.998;2023-12-04T19:12:33;0.10;99.90
30300;DHT22;17110;52.602;12.998;2023-12-04T19:17:35;0.10;99.90
30300;DHT22;17110;52.602;12.998;2023-12-04T19:22:36;0.10;99.90
30300;DHT22;17110;52.602;12.998;2023-12-04T19:27:37;0.10;99.90
30300;DHT22;17110;52.602;12.998;2023-12-04T19:32:42;0.20;99.90
30300;DHT22;17110;52.602;12.998;2023-12-04T19:37:43;0.10;99.90
30300;DHT22;17110;52.602;12.998;2023-12-04T19:42:44;0.20;99.90
30300;DHT22;17110;52.602;12.998;2023-12-04T19:47:46;0.20;99.90
30300;DHT22;17110;52.602;12.998;2023-12-04T19:52:50;0.20;99.90
30300;DHT22;17110;52.602;12.998;2023-12-04T19:57:51;0.20;99.90
30300;DHT22;17110;52.602;12.998;2023-12-04T20:02:54;0.20;99.90
30300;DHT22;17110;52.602;12.998;2023-12-04T20:07:54;0.20;99.90
30300;DHT22;17110;52.602;12.998;2023-12-04T20:12:55;0.20;99.90
30300;DHT22;17110;52.602;12.998;2023-12-04T20:17:59;0.30;99.90
30300;DHT22;17110;52.602;12.998;2023-12-04T20:23:00;0.20;99.90
30300;DHT22;17110;52.602;12.998;2023-12-04T20:28:00;0.20;99.90
30300;DHT22;17110;52.602;12.998;2023-12-04T20:33:03;0.20;99.90
30300;DHT22;17110;52.602;12.998;2023-12-04T20:38:04;0.20;99.90
30300;DHT22;17110;52.602;12.998;2023-12-04T20:43:05;0.20;99.90
30300;DHT22;17110;52.602;12.998;2023-12-04T20:48:08;0.10;99.90
30300;DHT22;17110;52.602;12.998;2023-12-04T20:53:09;0.10;99.90
30300;DHT22;17110;52.602;12.998;2023-12-04T20:58:10;0.00;99.90
30300;DHT22;17110;52.602;12.998;2023-12-04T21:03:12;-0.10;99.90
30300;DHT22;17110;52.602;12.998;2023-12-04T21:08:13;-0.10;99.90
30300;DHT22;17110;52.602;12.998;2023-12-04T21:13:14;-0.20;99.90
30300;DHT22;17110;52.602;12.998;2023-12-04T21:18:16;-0.20;99.90
30300;DHT22;17110;52.602;12.998;2023-12-04T21:23:17;-0.30;99.90
30300;DHT22;17110;52.602;12.998;2023-12-04T21:28:23;-0.30;99.90
30300;DHT22;17110;52.602;12.998;2023-12-04T21:33:27;-0.40;99.90
30300;DHT22;17110;52.602;12.998;2023-12-04T21:38:37;-0.40;99.90
30300;DHT22;17110;52.602;12.998;2023-12-04T21:43:40;-0.40;99.90
30300;DHT22;17110;52.602;12.998;2023-12-04T21:48:42;-0.50;99.90
30300;DHT22;17110;52.602;12.998;2023-12-04T21:53:43;-0.70;99.90
30300;DHT22;17110;52.602;12.998;2023-12-04T21:58:44;-0.80;99.90
30300;DHT22;17110;52.602;12.998;2023-12-04T22:04:04;-0.80;99.90
30300;DHT22;17110;52.602;12.998;2023-12-04T22:09:05;-0.80;99.90
30300;DHT22;17110;52.602;12.998;2023-12-04T22:14:06;-0.90;99.90
30300;DHT22;17110;52.602;12.998;2023-12-04T22:19:08;-1.00;99.90
30300;DHT22;17110;52.602;12.998;2023-12-04T22:24:09;-1.10;99.90
30300;DHT22;17110;52.602;12.998;2023-12-04T22:29:09;-1.10;99.90
30300;DHT22;17110;52.602;12.998;2023-12-04T22:34:11;-1.10;99.90
30300;DHT22;17110;52.602;12.998;2023-12-04T22:39:12;-1.10;99.90
30300;DHT22;17110;52.602;12.998;2023-12-04T22:44:13;-1.10;99.90
30300;DHT22;17110;52.602;12.998;2023-12-04T22:49:15;-1.20;99.90
30300;DHT22;17110;52.602;12.998;2023-12-04T22:54:16;-1.10;99.90
30300;DHT22;17110;52.602;12.998;2023-12-04T22:59:16;-1.10;99.90
30300;DHT22;17110;52.602;12.998;2023-12-04T23:04:18;-1.10;99.90
30300;DHT22;17110;52.602;12.998;2023-12-04T23:09:19;-1.20;99.90
30300;DHT22;17110;52.602;12.998;2023-12-04T23:14:21;-1.20;99.90
30300;DHT22;17110;52.602;12.998;2023-12-04T23:19:23;-1.30;99.90
30300;DHT22;17110;52.602;12.998;2023-12-04T23:24:24;-1.40;99.90
30300;DHT22;17110;52.602;12.998;2023-12-04T23:29:25;-1.50;99.90
30300;DHT22;17110;52.602;12.998;2023-12-04T23:34:27;-1.50;99.90
30300;DHT22;17110;52.602;12.998;2023-12-04T23:39:28;-1.60;99.90
30300;DHT22;17110;52.602;12.998;2023-12-04T23:44:29;-1.60;99.90
30300;DHT22;17110;52.602;12.998;2023-12-04T23:49:31;-1.60;99.90
30300;DHT22;17110;52.602;12.998;2023-12-04T23:54:32;-1.70;99.90
30300;DHT22;17110;52.602;12.998;2023-12-04T23:59:32;-1.60;99.90
